createdAt,value
2019-06-07T00:01:29.605Z,13.84
2019-06-07T00:03:56.419Z,13.88
2019-06-07T00:06:25.635Z,13.94
2019-06-07T00:08:51.647Z,13.92
2019-06-07T00:11:20.511Z,13.89
2019-06-07T00:13:46.994Z,13.83
2019-06-07T00:16:14.959Z,13.78
2019-06-07T00:18:42.318Z,13.77
2019-06-07T00:21:10.023Z,13.73
2019-06-07T00:23:36.889Z,13.68
2019-06-07T00:26:04.126Z,13.63
2019-06-07T00:28:30.845Z,13.62
2019-06-07T00:30:57.596Z,13.66
2019-06-07T00:33:25.230Z,13.65
2019-06-07T00:35:52.137Z,13.64
2019-06-07T00:38:20.446Z,13.62
2019-06-07T00:40:47.509Z,13.62
2019-06-07T00:43:17.581Z,13.63
2019-06-07T00:45:42.793Z,13.71
2019-06-07T00:48:16.189Z,13.75
2019-06-07T00:50:38.268Z,13.78
2019-06-07T00:53:17.271Z,13.77
2019-06-07T00:55:33.598Z,13.80
2019-06-07T00:58:00.311Z,13.80
2019-06-07T01:00:27.055Z,13.78
2019-06-07T01:02:53.822Z,13.78
2019-06-07T01:05:28.555Z,13.76
2019-06-07T01:07:49.105Z,13.72
2019-06-07T01:10:22.883Z,13.68
2019-06-07T01:12:45.744Z,13.65
2019-06-07T01:15:15.789Z,13.62
2019-06-07T01:18:25.950Z,13.59
2019-06-07T01:20:12.867Z,13.56
2019-06-07T01:22:40.857Z,13.51
2019-06-07T01:25:08.424Z,13.51
2019-06-07T01:27:35.208Z,13.52
2019-06-07T01:30:08.107Z,13.53
2019-06-07T01:32:34.881Z,13.49
2019-06-07T01:35:01.908Z,13.40
2019-06-07T01:37:30.297Z,13.35
2019-06-07T01:39:57.235Z,13.32
2019-06-07T01:42:25.314Z,13.31
2019-06-07T01:44:52.512Z,13.34
2019-06-07T01:47:21.270Z,13.30
2019-06-07T01:49:47.882Z,13.25
2019-06-07T01:52:14.622Z,13.26
2019-06-07T01:54:56.762Z,13.20
2019-06-07T01:57:30.538Z,13.16
2019-06-07T01:59:38.555Z,13.12
2019-06-07T02:02:05.358Z,13.09
2019-06-07T02:04:33.468Z,13.05
2019-06-07T02:07:00.409Z,13.02
2019-06-07T02:09:29.845Z,12.98
2019-06-07T02:11:55.843Z,12.90
2019-06-07T02:14:25.743Z,12.86
2019-06-07T02:16:51.269Z,12.85
2019-06-07T02:19:17.998Z,12.84
2019-06-07T02:21:44.743Z,12.82
2019-06-07T02:24:11.624Z,12.80
2019-06-07T02:26:38.402Z,12.76
2019-06-07T02:29:05.143Z,12.75
2019-06-07T02:31:38.571Z,12.73
2019-06-07T02:34:00.526Z,12.72
2019-06-07T02:36:30.490Z,12.72
2019-06-07T02:38:55.846Z,12.70
2019-06-07T02:41:25.832Z,12.70
2019-06-07T02:43:51.120Z,12.70
2019-06-07T02:46:26.395Z,12.70
2019-06-07T02:48:46.556Z,12.72
2019-06-07T02:51:13.415Z,12.73
2019-06-07T02:53:40.517Z,12.69
2019-06-07T02:58:41.537Z,12.67
2019-06-07T03:01:09.075Z,12.69
2019-06-07T03:03:39.599Z,12.69
2019-06-07T03:06:02.578Z,12.74
2019-06-07T03:08:35.423Z,12.71
2019-06-07T03:11:01.878Z,12.70
2019-06-07T03:13:34.976Z,12.67
2019-06-07T03:16:04.523Z,12.65
2019-06-07T03:18:32.179Z,12.63
2019-06-07T03:21:05.329Z,12.65
2019-06-07T03:23:30.682Z,12.67
2019-06-07T03:25:58.122Z,12.71
2019-06-07T03:28:25.030Z,12.71
2019-06-07T03:31:01.632Z,12.72
2019-06-07T03:33:20.422Z,12.71
2019-06-07T03:35:47.309Z,12.69
2019-06-07T03:38:14.023Z,12.69
2019-06-07T03:40:40.752Z,12.72
2019-06-07T03:43:07.643Z,12.71
2019-06-07T03:45:37.857Z,12.69
2019-06-07T03:48:02.921Z,12.69
2019-06-07T03:50:33.410Z,12.67
2019-06-07T03:52:58.250Z,12.68
2019-06-07T03:55:24.964Z,12.68
2019-06-07T04:00:20.657Z,12.74
2019-06-07T04:02:47.378Z,12.80
2019-06-07T04:05:14.185Z,12.83
2019-06-07T04:07:44.430Z,12.87
2019-06-07T04:10:09.636Z,12.89
2019-06-07T04:12:41.352Z,12.95
2019-06-07T04:15:05.374Z,12.95
2019-06-07T04:17:33.786Z,12.97
2019-06-07T04:20:00.712Z,13.00
2019-06-07T04:22:28.840Z,13.01
2019-06-07T04:24:56.796Z,13.01
2019-06-07T04:27:23.632Z,13.01
2019-06-07T04:30:06.366Z,13.02
2019-06-07T04:32:18.982Z,13.04
2019-06-07T04:34:45.854Z,13.05
2019-06-07T04:37:12.974Z,13.09
2019-06-07T04:39:44.558Z,13.15
2019-06-07T04:42:11.677Z,13.19
2019-06-07T04:44:42.556Z,13.24
2019-06-07T04:47:10.781Z,13.27
2019-06-07T04:49:43.426Z,13.28
2019-06-07T04:52:10.528Z,13.32
2019-06-07T04:54:38.569Z,13.33
2019-06-07T04:57:05.824Z,13.37
2019-06-07T05:00:05.532Z,13.42
2019-06-07T05:02:01.080Z,13.48
2019-06-07T05:04:28.984Z,13.52
2019-06-07T05:06:56.457Z,13.52
2019-06-07T05:09:23.144Z,13.53
2019-06-07T05:11:50.016Z,13.58
2019-06-07T05:14:16.757Z,13.59
2019-06-07T05:16:44.540Z,13.62
2019-06-07T05:19:11.722Z,13.63
2019-06-07T05:21:54.197Z,13.63
2019-06-07T05:24:10.374Z,13.65
2019-06-07T05:26:40.520Z,13.67
2019-06-07T05:29:07.217Z,13.73
2019-06-07T05:31:36.828Z,13.79
2019-06-07T05:34:03.227Z,13.84
2019-06-07T05:36:36.691Z,13.91
2019-06-07T05:39:02.119Z,13.99
2019-06-07T05:41:29.009Z,14.05
2019-06-07T05:44:12.285Z,14.10
2019-06-07T05:46:24.313Z,14.16
2019-06-07T05:48:51.041Z,14.23
2019-06-07T05:51:18.581Z,14.29
2019-06-07T05:53:46.211Z,14.41
2019-06-07T05:56:13.640Z,14.51
2019-06-07T05:58:42.762Z,14.58
2019-06-07T06:03:38.149Z,14.76
2019-06-07T06:06:04.880Z,14.89
2019-06-07T06:08:31.618Z,15.03
2019-06-07T06:10:58.496Z,15.16
2019-06-07T06:13:25.264Z,15.28
2019-06-07T06:16:01.388Z,15.39
2019-06-07T06:18:20.583Z,15.48
2019-06-07T06:21:12.755Z,15.60
2019-06-07T06:23:15.873Z,15.66
2019-06-07T06:25:50.935Z,15.74
2019-06-07T06:28:12.928Z,15.80
2019-06-07T06:30:41.199Z,15.86
2019-06-07T06:33:27.178Z,15.92
2019-06-07T06:35:37.559Z,15.96
2019-06-07T06:38:04.501Z,16.04
2019-06-07T06:40:31.312Z,16.11
2019-06-07T06:42:58.035Z,16.22
2019-06-07T06:45:24.949Z,16.27
2019-06-07T06:47:51.767Z,16.25
2019-06-07T06:50:19.017Z,16.31
2019-06-07T06:52:48.516Z,16.31
2019-06-07T06:55:14.811Z,16.30
2019-06-07T06:57:41.863Z,16.36
2019-06-07T07:00:13.180Z,16.44
2019-06-07T07:03:26.777Z,16.49
2019-06-07T07:05:10.737Z,16.53
2019-06-07T07:07:37.975Z,16.56
2019-06-07T07:10:08.172Z,16.61
2019-06-07T07:12:34.915Z,16.68
2019-06-07T07:15:06.374Z,16.67
2019-06-07T07:17:50.850Z,16.79
2019-06-07T07:20:05.671Z,16.85
2019-06-07T07:22:32.387Z,16.92
2019-06-07T07:24:59.273Z,16.99
2019-06-07T07:27:25.985Z,17.11
2019-06-07T07:30:29.544Z,17.15
2019-06-07T07:32:21.362Z,17.24
2019-06-07T07:34:51.892Z,17.33
2019-06-07T07:37:16.617Z,17.41
2019-06-07T07:39:46.356Z,17.45
2019-06-07T07:42:20.660Z,17.50
2019-06-07T07:44:40.560Z,17.59
2019-06-07T07:47:07.549Z,17.60
2019-06-07T07:49:34.270Z,17.64
2019-06-07T07:52:01.006Z,17.59
2019-06-07T07:54:27.891Z,17.65
2019-06-07T07:56:56.044Z,17.70
2019-06-07T07:59:41.090Z,17.80
2019-06-07T08:01:55.560Z,17.87
2019-06-07T08:04:39.744Z,17.91
2019-06-07T08:06:51.167Z,17.97
2019-06-07T08:09:17.726Z,17.96
2019-06-07T08:11:47.226Z,18.06
2019-06-07T08:14:12.969Z,17.98
2019-06-07T08:16:39.894Z,18.08
2019-06-07T08:19:06.605Z,18.10
2019-06-07T08:21:33.333Z,18.22
2019-06-07T08:24:04.235Z,18.25
2019-06-07T08:26:28.776Z,18.20
2019-06-07T08:28:58.906Z,18.24
2019-06-07T08:31:24.107Z,18.44
2019-06-07T08:33:52.618Z,18.45
2019-06-07T08:36:30.147Z,18.63
2019-06-07T08:38:52.382Z,18.67
2019-06-07T08:41:16.634Z,18.77
2019-06-07T08:43:43.315Z,18.82
2019-06-07T08:46:10.355Z,18.87
2019-06-07T08:48:37.120Z,18.91
2019-06-07T08:51:08.300Z,18.96
2019-06-07T08:53:32.622Z,19.02
2019-06-07T08:56:08.825Z,19.06
2019-06-07T08:58:27.877Z,19.11
2019-06-07T09:00:56.318Z,19.15
2019-06-07T09:03:23.318Z,19.14
2019-06-07T09:05:50.006Z,19.08
2019-06-07T09:08:29.795Z,19.15
2019-06-07T09:10:46.561Z,19.13
2019-06-07T09:13:13.390Z,19.14
2019-06-07T09:15:40.231Z,19.09
2019-06-07T09:18:37.951Z,19.06
2019-06-07T09:20:48.595Z,19.11
2019-06-07T09:23:17.150Z,19.05
2019-06-07T09:25:56.538Z,19.03
2019-06-07T09:28:19.484Z,19.14
2019-06-07T09:30:43.914Z,19.07
2019-06-07T09:33:11.404Z,19.11
2019-06-07T09:35:39.083Z,19.19
2019-06-07T09:38:17.642Z,19.15
2019-06-07T09:40:34.351Z,19.02
2019-06-07T09:43:47.288Z,19.08
2019-06-07T09:45:29.695Z,19.26
2019-06-07T09:47:57.060Z,19.33
2019-06-07T09:50:25.008Z,19.39
2019-06-07T09:52:58.451Z,19.46
2019-06-07T09:55:24.695Z,19.52
2019-06-07T09:57:48.998Z,19.55
2019-06-07T10:00:40.158Z,19.52
2019-06-07T10:02:44.977Z,19.57
2019-06-07T10:05:14.295Z,19.60
2019-06-07T10:07:59.318Z,19.66
2019-06-07T10:12:38.630Z,19.73
2019-06-07T10:15:07.041Z,19.72
2019-06-07T10:17:33.871Z,19.83
2019-06-07T10:20:02.549Z,19.87
2019-06-07T10:22:29.177Z,19.92
2019-06-07T10:24:55.898Z,19.94
2019-06-07T10:27:22.741Z,20.09
2019-06-07T10:29:49.446Z,20.22
2019-06-07T10:32:16.178Z,20.23
2019-06-07T10:34:43.443Z,20.28
2019-06-07T10:37:14.836Z,20.30
2019-06-07T10:39:48.776Z,20.39
2019-06-07T10:42:09.676Z,20.33
2019-06-07T10:44:36.547Z,20.51
2019-06-07T10:47:03.973Z,20.65
2019-06-07T10:49:30.895Z,20.68
2019-06-07T10:51:57.631Z,20.76
2019-06-07T10:54:30.298Z,20.71
2019-06-07T10:56:53.098Z,20.79
2019-06-07T10:59:19.831Z,20.90
2019-06-07T11:01:47.002Z,21.04
2019-06-07T11:04:13.959Z,21.11
2019-06-07T11:06:40.767Z,21.09
2019-06-07T11:09:07.914Z,21.25
2019-06-07T11:11:34.697Z,21.35
2019-06-07T11:14:02.114Z,21.53
2019-06-07T11:16:28.861Z,21.48
2019-06-07T11:18:55.636Z,21.54
2019-06-07T11:21:22.385Z,21.51
2019-06-07T11:23:49.102Z,21.63
2019-06-07T11:26:16.009Z,21.65
2019-06-07T11:28:42.736Z,21.68
2019-06-07T11:31:10.755Z,21.81
2019-06-07T11:33:37.991Z,22.00
2019-06-07T11:36:04.893Z,22.14
2019-06-07T11:38:31.925Z,22.36
2019-06-07T11:40:58.670Z,22.53
2019-06-07T11:43:25.930Z,22.66
2019-06-07T11:45:52.673Z,22.65
2019-06-07T11:48:19.563Z,22.83
2019-06-07T11:50:46.299Z,22.96
2019-06-07T11:53:13.042Z,23.14
2019-06-07T11:55:39.831Z,23.27
2019-06-07T11:58:12.702Z,23.29
2019-06-07T12:00:36.551Z,23.58
2019-06-07T12:03:03.410Z,23.48
2019-06-07T12:05:30.180Z,23.80
2019-06-07T12:07:57.242Z,23.74
2019-06-07T12:10:24.202Z,23.94
2019-06-07T12:12:50.943Z,24.03
2019-06-07T12:15:19.174Z,24.18
2019-06-07T12:17:46.171Z,24.08
2019-06-07T12:20:16.742Z,24.18
2019-06-07T12:22:43.852Z,24.50
2019-06-07T12:25:12.474Z,24.62
2019-06-07T12:27:40.393Z,24.79
2019-06-07T12:30:11.322Z,25.08
2019-06-07T12:32:36.555Z,25.18
2019-06-07T12:35:08.674Z,25.31
2019-06-07T12:37:43.975Z,25.44
2019-06-07T12:40:06.307Z,25.56
2019-06-07T12:42:33.073Z,25.55
2019-06-07T12:44:59.811Z,25.68
2019-06-07T12:47:26.622Z,25.72
2019-06-07T12:49:53.363Z,25.56
2019-06-07T12:52:22.735Z,25.54
2019-06-07T12:54:48.670Z,25.51
2019-06-07T12:57:16.216Z,25.77
2019-06-07T12:59:43.011Z,26.00
2019-06-07T13:02:10.206Z,26.10
2019-06-07T13:04:36.939Z,26.11
2019-06-07T13:07:03.779Z,26.27
2019-06-07T13:09:30.675Z,26.42
2019-06-07T13:11:57.391Z,26.44
2019-06-07T13:14:24.137Z,26.56
2019-06-07T13:16:50.987Z,26.62
2019-06-07T13:19:18.069Z,26.72
2019-06-07T13:21:44.908Z,26.89
2019-06-07T13:24:11.778Z,26.91
2019-06-07T13:26:38.512Z,26.92
2019-06-07T13:29:05.431Z,26.91
2019-06-07T13:31:32.246Z,26.82
2019-06-07T13:33:58.990Z,26.71
2019-06-07T13:36:25.762Z,26.67
2019-06-07T13:38:52.566Z,26.74
2019-06-07T13:41:35.299Z,26.78
2019-06-07T13:43:51.360Z,26.64
2019-06-07T13:46:16.908Z,26.82
2019-06-07T13:48:43.785Z,26.88
2019-06-07T13:51:10.538Z,27.02
2019-06-07T13:53:37.436Z,27.18
2019-06-07T13:56:04.169Z,27.20
2019-06-07T13:58:30.911Z,27.25
2019-06-07T14:00:58.649Z,27.25
2019-06-07T14:03:30.470Z,27.32
2019-06-07T14:05:53.984Z,27.24
2019-06-07T14:08:21.081Z,27.25
2019-06-07T14:10:47.931Z,27.27
2019-06-07T14:13:14.674Z,27.39
2019-06-07T14:15:41.555Z,27.49
2019-06-07T14:18:08.295Z,27.69
2019-06-07T14:20:35.044Z,27.60
2019-06-07T14:23:01.841Z,27.39
2019-06-07T14:25:29.376Z,27.29
2019-06-07T14:27:56.216Z,27.22
2019-06-07T14:30:23.976Z,27.40
2019-06-07T14:32:50.899Z,27.52
2019-06-07T14:35:17.661Z,27.58
2019-06-07T14:37:44.519Z,27.45
2019-06-07T14:40:14.520Z,27.68
2019-06-07T14:42:41.258Z,27.76
2019-06-07T14:45:10.670Z,27.96
2019-06-07T14:47:37.385Z,28.12
2019-06-07T14:50:08.273Z,28.17
2019-06-07T14:52:35.330Z,28.22
2019-06-07T14:55:04.577Z,28.16
2019-06-07T14:57:31.313Z,27.95
2019-06-07T14:59:58.129Z,28.02
2019-06-07T15:02:26.266Z,28.28
2019-06-07T15:04:53.522Z,28.38
2019-06-07T15:07:20.430Z,28.36
2019-06-07T15:09:47.181Z,28.34
2019-06-07T15:12:24.500Z,28.26
2019-06-07T15:14:42.590Z,28.18
2019-06-07T15:17:09.488Z,27.89
2019-06-07T15:19:36.516Z,27.84
2019-06-07T15:22:03.598Z,27.63
2019-06-07T15:24:33.965Z,27.32
2019-06-07T15:26:58.841Z,27.26
2019-06-07T15:29:25.724Z,26.50
2019-06-07T15:31:52.469Z,26.39
2019-06-07T15:34:19.762Z,26.47
2019-06-07T15:36:51.849Z,26.28
2019-06-07T15:39:18.621Z,26.35
2019-06-07T15:41:45.347Z,26.08
2019-06-07T15:44:12.354Z,26.00
2019-06-07T15:46:40.175Z,25.91
2019-06-07T15:49:07.277Z,25.76
2019-06-07T15:51:34.501Z,25.59
2019-06-07T15:54:01.265Z,25.32
2019-06-07T15:56:27.979Z,25.37
2019-06-07T15:58:54.892Z,25.23
2019-06-07T16:01:21.841Z,24.89
2019-06-07T16:03:51.364Z,24.86
2019-06-07T16:06:19.650Z,24.80
2019-06-07T16:08:46.488Z,24.88
2019-06-07T16:11:13.214Z,24.99
2019-06-07T16:13:40.806Z,25.05
2019-06-07T16:16:07.641Z,25.30
2019-06-07T16:18:35.218Z,25.56
2019-06-07T16:21:02.386Z,25.79
2019-06-07T16:23:29.137Z,25.68
2019-06-07T16:25:55.885Z,25.63
2019-06-07T16:28:24.484Z,25.27
2019-06-07T16:30:51.158Z,25.28
2019-06-07T16:33:18.724Z,25.04
2019-06-07T16:35:47.253Z,24.54
2019-06-07T16:38:13.960Z,24.56
2019-06-07T16:40:42.393Z,24.41
2019-06-07T16:43:17.906Z,24.35
2019-06-07T16:45:44.992Z,24.27
2019-06-07T16:48:11.790Z,23.98
2019-06-07T16:50:38.807Z,23.92
2019-06-07T16:53:05.517Z,23.82
2019-06-07T16:55:32.231Z,23.62
2019-06-07T16:57:59.238Z,23.37
2019-06-07T17:00:28.154Z,23.30
2019-06-07T17:02:54.855Z,23.23
2019-06-07T17:05:28.461Z,23.12
2019-06-07T17:07:55.073Z,22.95
2019-06-07T17:10:21.906Z,22.54
2019-06-07T17:12:49.101Z,22.58
2019-06-07T17:15:17.080Z,22.47
2019-06-07T17:17:45.127Z,22.22
2019-06-07T17:20:13.024Z,21.99
2019-06-07T17:22:41.560Z,22.05
2019-06-07T17:25:09.587Z,22.07
2019-06-07T17:27:36.479Z,22.09
2019-06-07T17:30:09.923Z,21.98
2019-06-07T17:32:48.634Z,21.83
2019-06-07T17:35:06.746Z,21.77
2019-06-07T17:37:33.521Z,21.64
2019-06-07T17:40:00.219Z,21.53
2019-06-07T17:42:27.019Z,21.55
2019-06-07T17:44:53.742Z,21.44
2019-06-07T17:47:20.493Z,21.35
2019-06-07T17:49:47.824Z,21.11
2019-06-07T17:52:14.600Z,21.23
2019-06-07T17:54:41.782Z,21.05
2019-06-07T17:57:08.647Z,21.05
2019-06-07T17:59:35.390Z,21.01
2019-06-07T18:02:14.036Z,21.00
2019-06-07T18:04:30.795Z,20.94
2019-06-07T18:06:58.146Z,20.87
2019-06-07T18:09:25.342Z,20.72
2019-06-07T18:11:52.355Z,20.60
2019-06-07T18:14:19.261Z,20.61
2019-06-07T18:16:46.424Z,20.63
2019-06-07T18:19:13.309Z,20.62
2019-06-07T18:21:40.048Z,20.44
2019-06-07T18:24:06.777Z,20.39
2019-06-07T18:26:33.651Z,20.42
2019-06-07T18:29:00.370Z,20.37
2019-06-07T18:31:27.111Z,20.37
2019-06-07T18:33:55.048Z,20.29
2019-06-07T18:36:21.848Z,20.26
2019-06-07T18:38:48.979Z,20.24
2019-06-07T18:41:15.975Z,20.13
2019-06-07T18:43:42.748Z,20.11
2019-06-07T18:46:09.466Z,20.02
2019-06-07T18:48:36.353Z,20.04
2019-06-07T18:51:03.234Z,19.86
2019-06-07T18:53:29.901Z,19.80
2019-06-07T18:55:58.061Z,19.81
2019-06-07T18:58:24.890Z,19.69
2019-06-07T19:00:51.635Z,19.72
2019-06-07T19:03:18.671Z,19.56
2019-06-07T19:05:51.972Z,19.51
2019-06-07T19:08:19.339Z,19.45
2019-06-07T19:10:48.674Z,19.41
2019-06-07T19:13:15.519Z,19.27
2019-06-07T19:15:43.458Z,19.15
2019-06-07T19:18:10.451Z,19.07
2019-06-07T19:20:37.206Z,19.15
2019-06-07T19:23:04.115Z,19.15
2019-06-07T19:25:30.933Z,19.20
2019-06-07T19:27:58.973Z,19.19
2019-06-07T19:30:26.021Z,19.14
2019-06-07T19:32:53.163Z,19.23
2019-06-07T19:35:20.254Z,19.27
2019-06-07T19:37:47.204Z,19.26
2019-06-07T19:40:17.395Z,19.27
2019-06-07T19:42:44.152Z,19.32
2019-06-07T19:47:40.374Z,19.34
2019-06-07T19:50:07.963Z,19.30
2019-06-07T19:52:34.781Z,19.20
2019-06-07T19:55:06.714Z,19.16
2019-06-07T19:57:30.540Z,19.13
2019-06-07T19:59:59.596Z,19.05
2019-06-07T20:02:26.575Z,19.03
2019-06-07T20:04:54.873Z,18.95
2019-06-07T20:07:21.925Z,18.96
2019-06-07T20:09:48.664Z,18.93
2019-06-07T20:12:35.122Z,18.88
2019-06-07T20:15:25.162Z,18.88
2019-06-07T20:17:33.715Z,18.87
2019-06-07T20:20:00.499Z,18.78
2019-06-07T20:22:27.405Z,18.75
2019-06-07T20:24:54.163Z,18.73
2019-06-07T20:27:20.912Z,18.76
2019-06-07T20:29:47.825Z,18.69
2019-06-07T20:32:14.547Z,18.66
2019-06-07T20:34:44.357Z,18.69
2019-06-07T20:37:09.976Z,18.67
2019-06-07T20:39:36.724Z,18.60
2019-06-07T20:42:03.609Z,18.64
2019-06-07T20:44:30.437Z,18.67
2019-06-07T20:46:57.878Z,18.63
2019-06-07T20:49:24.618Z,18.54
2019-06-07T20:51:51.416Z,18.43
2019-06-07T20:54:18.138Z,18.40
2019-06-07T20:56:44.865Z,18.39
2019-06-07T20:59:11.770Z,18.39
2019-06-07T21:01:38.517Z,18.39
2019-06-07T21:04:05.277Z,18.40
2019-06-07T21:06:32.473Z,18.42
2019-06-07T21:08:59.369Z,18.45
2019-06-07T21:11:26.149Z,18.42
2019-06-07T21:13:52.982Z,18.41
2019-06-07T21:16:19.733Z,18.36
2019-06-07T21:18:46.467Z,18.40
2019-06-07T21:21:13.362Z,18.43
2019-06-07T21:23:40.087Z,18.42
2019-06-07T21:26:06.929Z,18.46
2019-06-07T21:28:33.795Z,18.46
2019-06-07T21:31:00.538Z,18.46
2019-06-07T21:33:27.374Z,18.48
2019-06-07T21:35:54.141Z,18.47
2019-06-07T21:38:20.882Z,18.45
2019-06-07T21:40:47.641Z,18.44
2019-06-07T21:43:14.511Z,18.43
2019-06-07T21:45:41.594Z,18.42
2019-06-07T21:48:08.882Z,18.42
2019-06-07T21:50:35.724Z,18.42
2019-06-07T21:53:02.510Z,18.40
2019-06-07T21:55:29.196Z,18.38
2019-06-07T21:57:56.086Z,18.31
2019-06-07T22:00:48.744Z,18.30
2019-06-07T22:03:15.498Z,18.32
2019-06-07T22:05:42.216Z,18.28
2019-06-07T22:08:10.175Z,18.29
2019-06-07T22:10:37.358Z,18.30
2019-06-07T22:13:04.096Z,18.25
2019-06-07T22:15:35.368Z,18.23
2019-06-07T22:17:59.415Z,18.24
2019-06-07T22:20:26.131Z,18.24
2019-06-07T22:22:52.890Z,18.20
2019-06-07T22:25:19.797Z,18.19
2019-06-07T22:27:46.534Z,18.18
2019-06-07T22:30:14.559Z,18.17
2019-06-07T22:32:41.494Z,18.15
2019-06-07T22:35:09.152Z,18.14
2019-06-07T22:37:35.856Z,18.12
2019-06-07T22:40:08.593Z,18.11
2019-06-07T22:42:35.693Z,18.11
2019-06-07T22:45:04.647Z,18.11
2019-06-07T22:47:31.634Z,18.11
2019-06-07T22:49:58.375Z,18.07
2019-06-07T22:52:25.108Z,18.04
2019-06-07T22:54:51.953Z,18.00
2019-06-07T22:57:18.695Z,18.01
2019-06-07T22:59:45.428Z,18.01
2019-06-07T23:02:12.654Z,17.97
2019-06-07T23:04:39.537Z,17.92
2019-06-07T23:07:06.289Z,17.91
2019-06-07T23:09:33.105Z,17.87
2019-06-07T23:11:59.838Z,17.82
2019-06-07T23:14:26.863Z,17.80
2019-06-07T23:16:55.884Z,17.74
2019-06-07T23:19:22.317Z,17.70
2019-06-07T23:21:49.055Z,17.69
2019-06-07T23:24:16.512Z,17.66
2019-06-07T23:26:43.286Z,17.64
2019-06-07T23:29:10.295Z,17.59
2019-06-07T23:31:37.194Z,17.57
2019-06-07T23:34:03.932Z,17.54
2019-06-07T23:36:30.683Z,17.53
2019-06-07T23:38:57.466Z,17.50
2019-06-07T23:41:24.205Z,17.50
2019-06-07T23:43:50.936Z,17.51
2019-06-07T23:46:17.826Z,17.48
2019-06-07T23:48:44.610Z,17.48
2019-06-07T23:51:11.535Z,17.45
2019-06-07T23:53:38.481Z,17.42
2019-06-07T23:56:05.177Z,17.34
2019-06-07T23:58:31.890Z,17.26
